sensor_id;sensor_type;location;lat;lon;timestamp;P1;durP1;ratioP1;P2;durP2;ratioP2
17382;SDS011;8809;51.892;8.384;2022-11-03T00:00:12;3.45;;;1.38;;
17382;SDS011;8809;51.892;8.384;2022-11-03T00:02:39;3.22;;;0.98;;
17382;SDS011;8809;51.892;8.384;2022-11-03T00:05:06;1.20;;;1.00;;
17382;SDS011;8809;51.892;8.384;2022-11-03T00:07:47;1.55;;;0.80;;
17382;SDS011;8809;51.892;8.384;2022-11-03T00:10:14;3.83;;;1.10;;
17382;SDS011;8809;51.892;8.384;2022-11-03T00:12:40;3.60;;;1.25;;
17382;SDS011;8809;51.892;8.384;2022-11-03T00:15:08;3.38;;;1.10;;
17382;SDS011;8809;51.892;8.384;2022-11-03T00:17:36;2.47;;;0.95;;
17382;SDS011;8809;51.892;8.384;2022-11-03T00:20:04;2.08;;;1.23;;
17382;SDS011;8809;51.892;8.384;2022-11-03T00:22:31;3.85;;;1.30;;
17382;SDS011;8809;51.892;8.384;2022-11-03T00:24:58;1.30;;;0.98;;
17382;SDS011;8809;51.892;8.384;2022-11-03T00:27:25;2.42;;;1.20;;
17382;SDS011;8809;51.892;8.384;2022-11-03T00:29:52;2.67;;;1.13;;
17382;SDS011;8809;51.892;8.384;2022-11-03T00:32:19;2.67;;;1.17;;
17382;SDS011;8809;51.892;8.384;2022-11-03T00:34:47;3.90;;;1.30;;
17382;SDS011;8809;51.892;8.384;2022-11-03T00:37:14;3.55;;;1.27;;
17382;SDS011;8809;51.892;8.384;2022-11-03T00:39:41;3.08;;;1.05;;
17382;SDS011;8809;51.892;8.384;2022-11-03T00:42:08;4.50;;;1.50;;
17382;SDS011;8809;51.892;8.384;2022-11-03T00:44:34;3.50;;;1.10;;
17382;SDS011;8809;51.892;8.384;2022-11-03T00:47:01;3.92;;;1.20;;
17382;SDS011;8809;51.892;8.384;2022-11-03T00:49:28;3.40;;;1.30;;
17382;SDS011;8809;51.892;8.384;2022-11-03T00:51:56;4.50;;;1.00;;
17382;SDS011;8809;51.892;8.384;2022-11-03T00:54:23;4.10;;;0.90;;
17382;SDS011;8809;51.892;8.384;2022-11-03T00:56:50;3.28;;;1.55;;
17382;SDS011;8809;51.892;8.384;2022-11-03T00:59:17;3.40;;;1.40;;
17382;SDS011;8809;51.892;8.384;2022-11-03T01:01:43;2.97;;;1.30;;
17382;SDS011;8809;51.892;8.384;2022-11-03T01:04:12;4.28;;;1.60;;
17382;SDS011;8809;51.892;8.384;2022-11-03T01:06:59;2.13;;;1.00;;
17382;SDS011;8809;51.892;8.384;2022-11-03T01:09:27;1.42;;;1.00;;
17382;SDS011;8809;51.892;8.384;2022-11-03T01:11:56;3.33;;;1.13;;
17382;SDS011;8809;51.892;8.384;2022-11-03T01:14:24;3.28;;;1.15;;
17382;SDS011;8809;51.892;8.384;2022-11-03T01:16:52;2.90;;;1.00;;
17382;SDS011;8809;51.892;8.384;2022-11-03T01:19:19;3.90;;;1.05;;
17382;SDS011;8809;51.892;8.384;2022-11-03T01:21:46;3.65;;;1.08;;
17382;SDS011;8809;51.892;8.384;2022-11-03T01:24:17;2.38;;;1.23;;
17382;SDS011;8809;51.892;8.384;2022-11-03T01:26:44;2.88;;;1.10;;
17382;SDS011;8809;51.892;8.384;2022-11-03T01:29:11;1.42;;;0.90;;
17382;SDS011;8809;51.892;8.384;2022-11-03T01:31:38;2.08;;;0.70;;
17382;SDS011;8809;51.892;8.384;2022-11-03T01:34:05;2.33;;;0.95;;
17382;SDS011;8809;51.892;8.384;2022-11-03T01:36:32;2.53;;;0.93;;
17382;SDS011;8809;51.892;8.384;2022-11-03T01:38:59;3.30;;;1.08;;
17382;SDS011;8809;51.892;8.384;2022-11-03T01:41:27;2.58;;;1.20;;
17382;SDS011;8809;51.892;8.384;2022-11-03T01:46:56;3.15;;;1.10;;
17382;SDS011;8809;51.892;8.384;2022-11-03T01:49:29;2.17;;;1.10;;
17382;SDS011;8809;51.892;8.384;2022-11-03T01:52:02;2.88;;;0.95;;
17382;SDS011;8809;51.892;8.384;2022-11-03T01:54:33;3.28;;;1.30;;
17382;SDS011;8809;51.892;8.384;2022-11-03T01:57:05;3.10;;;1.23;;
17382;SDS011;8809;51.892;8.384;2022-11-03T01:59:36;2.38;;;1.30;;
17382;SDS011;8809;51.892;8.384;2022-11-03T02:02:05;1.63;;;0.90;;
17382;SDS011;8809;51.892;8.384;2022-11-03T02:04:32;2.85;;;1.40;;
17382;SDS011;8809;51.892;8.384;2022-11-03T02:07:02;3.15;;;1.20;;
17382;SDS011;8809;51.892;8.384;2022-11-03T02:09:37;3.53;;;1.10;;
17382;SDS011;8809;51.892;8.384;2022-11-03T02:12:05;3.42;;;1.00;;
17382;SDS011;8809;51.892;8.384;2022-11-03T02:14:34;3.33;;;1.05;;
17382;SDS011;8809;51.892;8.384;2022-11-03T02:17:05;3.55;;;1.42;;
17382;SDS011;8809;51.892;8.384;2022-11-03T02:19:35;4.65;;;1.48;;
17382;SDS011;8809;51.892;8.384;2022-11-03T02:22:07;3.03;;;1.20;;
17382;SDS011;8809;51.892;8.384;2022-11-03T02:24:47;2.22;;;1.30;;
17382;SDS011;8809;51.892;8.384;2022-11-03T02:27:18;5.05;;;1.30;;
17382;SDS011;8809;51.892;8.384;2022-11-03T02:29:45;3.55;;;1.30;;
17382;SDS011;8809;51.892;8.384;2022-11-03T02:32:14;2.10;;;1.10;;
17382;SDS011;8809;51.892;8.384;2022-11-03T02:34:46;3.75;;;1.20;;
17382;SDS011;8809;51.892;8.384;2022-11-03T02:37:19;3.22;;;1.40;;
17382;SDS011;8809;51.892;8.384;2022-11-03T02:39:50;3.05;;;1.58;;
17382;SDS011;8809;51.892;8.384;2022-11-03T02:42:23;5.38;;;1.45;;
17382;SDS011;8809;51.892;8.384;2022-11-03T02:44:51;2.67;;;1.30;;
17382;SDS011;8809;51.892;8.384;2022-11-03T02:47:22;2.85;;;1.10;;
17382;SDS011;8809;51.892;8.384;2022-11-03T02:49:53;2.55;;;1.30;;
17382;SDS011;8809;51.892;8.384;2022-11-03T02:52:29;2.67;;;1.27;;
17382;SDS011;8809;51.892;8.384;2022-11-03T02:55:00;3.17;;;1.48;;
17382;SDS011;8809;51.892;8.384;2022-11-03T02:57:37;2.50;;;1.02;;
17382;SDS011;8809;51.892;8.384;2022-11-03T03:00:12;2.40;;;1.20;;
17382;SDS011;8809;51.892;8.384;2022-11-03T03:02:49;3.90;;;1.38;;
17382;SDS011;8809;51.892;8.384;2022-11-03T03:05:22;3.40;;;1.40;;
17382;SDS011;8809;51.892;8.384;2022-11-03T03:07:54;4.18;;;1.42;;
17382;SDS011;8809;51.892;8.384;2022-11-03T03:10:25;4.75;;;1.25;;
17382;SDS011;8809;51.892;8.384;2022-11-03T03:12:58;5.13;;;1.40;;
17382;SDS011;8809;51.892;8.384;2022-11-03T03:15:31;1.95;;;1.17;;
17382;SDS011;8809;51.892;8.384;2022-11-03T03:18:07;2.78;;;1.25;;
17382;SDS011;8809;51.892;8.384;2022-11-03T03:20:40;3.08;;;1.20;;
17382;SDS011;8809;51.892;8.384;2022-11-03T03:23:17;3.63;;;1.35;;
17382;SDS011;8809;51.892;8.384;2022-11-03T03:25:47;2.30;;;1.35;;
17382;SDS011;8809;51.892;8.384;2022-11-03T03:28:22;2.20;;;1.30;;
17382;SDS011;8809;51.892;8.384;2022-11-03T03:30:55;3.33;;;1.20;;
17382;SDS011;8809;51.892;8.384;2022-11-03T03:33:26;3.60;;;0.93;;
17382;SDS011;8809;51.892;8.384;2022-11-03T03:35:53;3.13;;;0.98;;
17382;SDS011;8809;51.892;8.384;2022-11-03T03:38:23;2.28;;;1.10;;
17382;SDS011;8809;51.892;8.384;2022-11-03T03:40:54;4.43;;;1.27;;
17382;SDS011;8809;51.892;8.384;2022-11-03T03:43:24;1.98;;;1.00;;
17382;SDS011;8809;51.892;8.384;2022-11-03T03:45:55;1.50;;;0.98;;
17382;SDS011;8809;51.892;8.384;2022-11-03T03:48:26;3.75;;;1.20;;
17382;SDS011;8809;51.892;8.384;2022-11-03T03:50:53;1.58;;;0.90;;
17382;SDS011;8809;51.892;8.384;2022-11-03T03:53:20;1.38;;;0.80;;
17382;SDS011;8809;51.892;8.384;2022-11-03T03:55:48;2.38;;;0.80;;
17382;SDS011;8809;51.892;8.384;2022-11-03T03:58:16;1.35;;;0.98;;
17382;SDS011;8809;51.892;8.384;2022-11-03T04:00:45;1.40;;;0.90;;
17382;SDS011;8809;51.892;8.384;2022-11-03T04:03:14;1.30;;;0.80;;
17382;SDS011;8809;51.892;8.384;2022-11-03T04:05:43;1.83;;;1.30;;
17382;SDS011;8809;51.892;8.384;2022-11-03T04:08:11;1.85;;;1.10;;
17382;SDS011;8809;51.892;8.384;2022-11-03T04:14:19;1.67;;;1.10;;
17382;SDS011;8809;51.892;8.384;2022-11-03T04:17:13;2.08;;;1.20;;
17382;SDS011;8809;51.892;8.384;2022-11-03T04:20:03;2.95;;;1.27;;
17382;SDS011;8809;51.892;8.384;2022-11-03T04:22:53;4.60;;;1.30;;
17382;SDS011;8809;51.892;8.384;2022-11-03T04:25:20;3.00;;;1.20;;
17382;SDS011;8809;51.892;8.384;2022-11-03T04:27:46;2.50;;;0.88;;
17382;SDS011;8809;51.892;8.384;2022-11-03T04:30:14;2.75;;;1.10;;
17382;SDS011;8809;51.892;8.384;2022-11-03T04:32:45;3.20;;;1.08;;
17382;SDS011;8809;51.892;8.384;2022-11-03T04:35:14;2.47;;;1.10;;
17382;SDS011;8809;51.892;8.384;2022-11-03T04:37:42;2.90;;;1.27;;
17382;SDS011;8809;51.892;8.384;2022-11-03T04:40:12;3.45;;;1.63;;
17382;SDS011;8809;51.892;8.384;2022-11-03T04:42:41;4.55;;;1.52;;
17382;SDS011;8809;51.892;8.384;2022-11-03T04:45:12;4.60;;;1.67;;
17382;SDS011;8809;51.892;8.384;2022-11-03T04:47:42;2.92;;;1.15;;
17382;SDS011;8809;51.892;8.384;2022-11-03T04:50:12;2.70;;;1.20;;
17382;SDS011;8809;51.892;8.384;2022-11-03T04:52:42;6.30;;;1.40;;
17382;SDS011;8809;51.892;8.384;2022-11-03T04:55:10;6.15;;;1.60;;
17382;SDS011;8809;51.892;8.384;2022-11-03T04:57:40;5.07;;;1.70;;
17382;SDS011;8809;51.892;8.384;2022-11-03T05:00:11;2.10;;;1.10;;
17382;SDS011;8809;51.892;8.384;2022-11-03T05:02:41;1.65;;;1.02;;
17382;SDS011;8809;51.892;8.384;2022-11-03T05:05:17;2.00;;;1.10;;
17382;SDS011;8809;51.892;8.384;2022-11-03T05:07:47;2.78;;;1.25;;
17382;SDS011;8809;51.892;8.384;2022-11-03T05:10:16;1.98;;;1.23;;
17382;SDS011;8809;51.892;8.384;2022-11-03T05:12:45;2.53;;;1.25;;
17382;SDS011;8809;51.892;8.384;2022-11-03T05:15:25;4.05;;;1.25;;
17382;SDS011;8809;51.892;8.384;2022-11-03T05:18:00;3.33;;;1.17;;
17382;SDS011;8809;51.892;8.384;2022-11-03T05:20:41;4.03;;;1.58;;
17382;SDS011;8809;51.892;8.384;2022-11-03T05:23:10;3.55;;;1.70;;
17382;SDS011;8809;51.892;8.384;2022-11-03T05:25:38;5.18;;;1.60;;
17382;SDS011;8809;51.892;8.384;2022-11-03T05:28:09;2.85;;;1.45;;
17382;SDS011;8809;51.892;8.384;2022-11-03T05:30:44;3.80;;;1.45;;
17382;SDS011;8809;51.892;8.384;2022-11-03T05:33:17;2.35;;;1.70;;
17382;SDS011;8809;51.892;8.384;2022-11-03T05:35:48;4.97;;;1.60;;
17382;SDS011;8809;51.892;8.384;2022-11-03T05:38:15;3.10;;;1.40;;
17382;SDS011;8809;51.892;8.384;2022-11-03T05:40:47;2.38;;;1.30;;
17382;SDS011;8809;51.892;8.384;2022-11-03T05:43:16;5.35;;;1.60;;
17382;SDS011;8809;51.892;8.384;2022-11-03T05:45:44;2.75;;;1.33;;
17382;SDS011;8809;51.892;8.384;2022-11-03T05:48:13;3.70;;;1.70;;
17382;SDS011;8809;51.892;8.384;2022-11-03T05:50:44;3.13;;;1.20;;
17382;SDS011;8809;51.892;8.384;2022-11-03T05:53:18;4.30;;;1.77;;
17382;SDS011;8809;51.892;8.384;2022-11-03T05:55:52;6.47;;;1.85;;
17382;SDS011;8809;51.892;8.384;2022-11-03T05:58:21;3.10;;;1.60;;
17382;SDS011;8809;51.892;8.384;2022-11-03T06:00:51;3.65;;;1.40;;
17382;SDS011;8809;51.892;8.384;2022-11-03T06:03:20;1.58;;;1.30;;
17382;SDS011;8809;51.892;8.384;2022-11-03T06:05:50;3.33;;;1.35;;
17382;SDS011;8809;51.892;8.384;2022-11-03T06:08:19;2.78;;;1.48;;
17382;SDS011;8809;51.892;8.384;2022-11-03T06:10:49;2.40;;;1.20;;
17382;SDS011;8809;51.892;8.384;2022-11-03T06:13:19;4.25;;;1.10;;
17382;SDS011;8809;51.892;8.384;2022-11-03T06:15:50;2.75;;;1.33;;
17382;SDS011;8809;51.892;8.384;2022-11-03T06:18:22;1.20;;;0.90;;
17382;SDS011;8809;51.892;8.384;2022-11-03T06:20:55;3.33;;;1.42;;
17382;SDS011;8809;51.892;8.384;2022-11-03T06:23:26;3.47;;;1.35;;
17382;SDS011;8809;51.892;8.384;2022-11-03T06:25:53;2.63;;;1.55;;
17382;SDS011;8809;51.892;8.384;2022-11-03T06:28:24;1.60;;;1.00;;
17382;SDS011;8809;51.892;8.384;2022-11-03T06:30:55;3.03;;;1.50;;
17382;SDS011;8809;51.892;8.384;2022-11-03T06:33:23;2.15;;;1.23;;
17382;SDS011;8809;51.892;8.384;2022-11-03T06:35:53;2.97;;;1.30;;
17382;SDS011;8809;51.892;8.384;2022-11-03T06:38:24;2.67;;;1.30;;
17382;SDS011;8809;51.892;8.384;2022-11-03T06:40:54;2.33;;;1.13;;
17382;SDS011;8809;51.892;8.384;2022-11-03T06:43:24;1.92;;;1.30;;
17382;SDS011;8809;51.892;8.384;2022-11-03T06:45:53;3.55;;;1.40;;
17382;SDS011;8809;51.892;8.384;2022-11-03T06:48:25;3.00;;;1.75;;
17382;SDS011;8809;51.892;8.384;2022-11-03T06:50:54;3.83;;;1.50;;
17382;SDS011;8809;51.892;8.384;2022-11-03T06:53:24;3.33;;;1.27;;
17382;SDS011;8809;51.892;8.384;2022-11-03T06:55:54;3.33;;;1.35;;
17382;SDS011;8809;51.892;8.384;2022-11-03T06:58:27;2.88;;;1.50;;
17382;SDS011;8809;51.892;8.384;2022-11-03T07:00:58;5.80;;;1.65;;
17382;SDS011;8809;51.892;8.384;2022-11-03T07:03:28;6.60;;;1.98;;
17382;SDS011;8809;51.892;8.384;2022-11-03T07:05:58;6.63;;;2.70;;
17382;SDS011;8809;51.892;8.384;2022-11-03T07:08:29;6.65;;;1.80;;
17382;SDS011;8809;51.892;8.384;2022-11-03T07:11:01;3.95;;;2.10;;
17382;SDS011;8809;51.892;8.384;2022-11-03T07:13:32;4.00;;;2.03;;
17382;SDS011;8809;51.892;8.384;2022-11-03T07:16:02;3.15;;;1.45;;
17382;SDS011;8809;51.892;8.384;2022-11-03T07:18:30;2.42;;;1.50;;
17382;SDS011;8809;51.892;8.384;2022-11-03T07:21:01;5.90;;;2.17;;
17382;SDS011;8809;51.892;8.384;2022-11-03T07:23:32;4.05;;;1.70;;
17382;SDS011;8809;51.892;8.384;2022-11-03T07:26:00;2.75;;;1.35;;
17382;SDS011;8809;51.892;8.384;2022-11-03T07:28:29;3.67;;;1.55;;
17382;SDS011;8809;51.892;8.384;2022-11-03T07:31:00;2.42;;;1.42;;
17382;SDS011;8809;51.892;8.384;2022-11-03T07:33:35;3.45;;;1.63;;
17382;SDS011;8809;51.892;8.384;2022-11-03T07:36:02;5.13;;;1.60;;
17382;SDS011;8809;51.892;8.384;2022-11-03T07:38:33;2.25;;;1.38;;
17382;SDS011;8809;51.892;8.384;2022-11-03T07:41:00;5.03;;;1.85;;
17382;SDS011;8809;51.892;8.384;2022-11-03T07:43:28;5.07;;;1.92;;
17382;SDS011;8809;51.892;8.384;2022-11-03T07:45:57;2.75;;;1.83;;
17382;SDS011;8809;51.892;8.384;2022-11-03T07:48:26;3.88;;;1.88;;
17382;SDS011;8809;51.892;8.384;2022-11-03T07:50:54;3.17;;;1.80;;
17382;SDS011;8809;51.892;8.384;2022-11-03T07:53:26;5.05;;;2.42;;
17382;SDS011;8809;51.892;8.384;2022-11-03T07:56:02;7.43;;;2.30;;
17382;SDS011;8809;51.892;8.384;2022-11-03T07:58:40;4.90;;;2.30;;
17382;SDS011;8809;51.892;8.384;2022-11-03T08:01:15;3.45;;;1.98;;
17382;SDS011;8809;51.892;8.384;2022-11-03T08:03:50;3.08;;;1.60;;
17382;SDS011;8809;51.892;8.384;2022-11-03T08:06:21;4.00;;;1.90;;
17382;SDS011;8809;51.892;8.384;2022-11-03T08:08:47;7.18;;;2.17;;
17382;SDS011;8809;51.892;8.384;2022-11-03T08:11:16;4.63;;;1.90;;
17382;SDS011;8809;51.892;8.384;2022-11-03T08:13:43;4.38;;;1.67;;
17382;SDS011;8809;51.892;8.384;2022-11-03T08:16:09;2.05;;;1.35;;
17382;SDS011;8809;51.892;8.384;2022-11-03T08:18:36;2.97;;;1.70;;
17382;SDS011;8809;51.892;8.384;2022-11-03T08:21:03;3.60;;;1.70;;
17382;SDS011;8809;51.892;8.384;2022-11-03T08:23:30;2.58;;;1.48;;
17382;SDS011;8809;51.892;8.384;2022-11-03T08:25:57;3.90;;;1.75;;
17382;SDS011;8809;51.892;8.384;2022-11-03T08:28:26;4.15;;;2.05;;
17382;SDS011;8809;51.892;8.384;2022-11-03T08:30:52;4.63;;;1.75;;
17382;SDS011;8809;51.892;8.384;2022-11-03T08:33:19;4.28;;;1.70;;
17382;SDS011;8809;51.892;8.384;2022-11-03T08:35:46;2.60;;;1.90;;
17382;SDS011;8809;51.892;8.384;2022-11-03T08:38:13;3.55;;;1.75;;
17382;SDS011;8809;51.892;8.384;2022-11-03T08:40:40;4.25;;;1.75;;
17382;SDS011;8809;51.892;8.384;2022-11-03T08:43:06;4.32;;;1.70;;
17382;SDS011;8809;51.892;8.384;2022-11-03T08:45:35;4.28;;;2.17;;
17382;SDS011;8809;51.892;8.384;2022-11-03T08:48:02;4.70;;;1.98;;
17382;SDS011;8809;51.892;8.384;2022-11-03T08:50:29;3.67;;;1.50;;
17382;SDS011;8809;51.892;8.384;2022-11-03T08:52:56;2.13;;;1.50;;
17382;SDS011;8809;51.892;8.384;2022-11-03T08:55:23;2.17;;;1.40;;
17382;SDS011;8809;51.892;8.384;2022-11-03T08:57:50;4.20;;;1.85;;
17382;SDS011;8809;51.892;8.384;2022-11-03T09:00:17;2.20;;;1.55;;
17382;SDS011;8809;51.892;8.384;2022-11-03T09:02:45;4.15;;;1.60;;
17382;SDS011;8809;51.892;8.384;2022-11-03T09:05:12;2.95;;;1.58;;
17382;SDS011;8809;51.892;8.384;2022-11-03T09:07:40;4.07;;;1.65;;
17382;SDS011;8809;51.892;8.384;2022-11-03T09:10:07;3.75;;;1.52;;
17382;SDS011;8809;51.892;8.384;2022-11-03T09:12:35;5.70;;;1.77;;
17382;SDS011;8809;51.892;8.384;2022-11-03T09:15:03;4.97;;;2.78;;
17382;SDS011;8809;51.892;8.384;2022-11-03T09:17:31;3.05;;;1.50;;
17382;SDS011;8809;51.892;8.384;2022-11-03T09:19:59;3.88;;;1.70;;
17382;SDS011;8809;51.892;8.384;2022-11-03T09:22:28;3.67;;;1.50;;
17382;SDS011;8809;51.892;8.384;2022-11-03T09:24:55;3.50;;;1.45;;
17382;SDS011;8809;51.892;8.384;2022-11-03T09:27:22;3.22;;;1.42;;
17382;SDS011;8809;51.892;8.384;2022-11-03T09:29:49;2.78;;;1.45;;
17382;SDS011;8809;51.892;8.384;2022-11-03T09:32:15;3.25;;;1.60;;
17382;SDS011;8809;51.892;8.384;2022-11-03T09:34:42;5.07;;;1.90;;
17382;SDS011;8809;51.892;8.384;2022-11-03T09:37:11;6.78;;;2.13;;
17382;SDS011;8809;51.892;8.384;2022-11-03T09:39:38;4.47;;;2.17;;
17382;SDS011;8809;51.892;8.384;2022-11-03T09:42:04;2.80;;;1.60;;
17382;SDS011;8809;51.892;8.384;2022-11-03T09:44:32;4.68;;;1.60;;
17382;SDS011;8809;51.892;8.384;2022-11-03T09:47:00;3.03;;;1.42;;
17382;SDS011;8809;51.892;8.384;2022-11-03T09:49:27;3.35;;;1.77;;
17382;SDS011;8809;51.892;8.384;2022-11-03T09:51:56;3.67;;;1.73;;
17382;SDS011;8809;51.892;8.384;2022-11-03T09:54:25;3.33;;;1.48;;
17382;SDS011;8809;51.892;8.384;2022-11-03T09:56:54;3.72;;;1.40;;
17382;SDS011;8809;51.892;8.384;2022-11-03T09:59:23;2.92;;;1.40;;
17382;SDS011;8809;51.892;8.384;2022-11-03T10:01:50;3.40;;;1.50;;
17382;SDS011;8809;51.892;8.384;2022-11-03T10:04:19;3.22;;;1.30;;
17382;SDS011;8809;51.892;8.384;2022-11-03T10:06:53;6.03;;;1.75;;
17382;SDS011;8809;51.892;8.384;2022-11-03T10:09:20;3.67;;;1.88;;
17382;SDS011;8809;51.892;8.384;2022-11-03T10:11:51;4.53;;;1.60;;
17382;SDS011;8809;51.892;8.384;2022-11-03T10:14:19;4.68;;;1.60;;
17382;SDS011;8809;51.892;8.384;2022-11-03T10:16:49;2.53;;;1.48;;
17382;SDS011;8809;51.892;8.384;2022-11-03T10:19:20;4.13;;;1.50;;
17382;SDS011;8809;51.892;8.384;2022-11-03T10:21:49;3.08;;;1.30;;
17382;SDS011;8809;51.892;8.384;2022-11-03T10:24:17;3.45;;;1.70;;
17382;SDS011;8809;51.892;8.384;2022-11-03T10:26:44;3.88;;;1.50;;
17382;SDS011;8809;51.892;8.384;2022-11-03T10:29:20;2.20;;;1.30;;
17382;SDS011;8809;51.892;8.384;2022-11-03T10:31:49;3.50;;;1.50;;
17382;SDS011;8809;51.892;8.384;2022-11-03T10:34:24;1.90;;;1.52;;
17382;SDS011;8809;51.892;8.384;2022-11-03T10:39:51;3.03;;;1.40;;
17382;SDS011;8809;51.892;8.384;2022-11-03T10:42:20;3.63;;;1.33;;
17382;SDS011;8809;51.892;8.384;2022-11-03T10:44:50;1.30;;;1.10;;
17382;SDS011;8809;51.892;8.384;2022-11-03T10:47:25;3.92;;;1.40;;
17382;SDS011;8809;51.892;8.384;2022-11-03T10:49:58;4.85;;;1.85;;
17382;SDS011;8809;51.892;8.384;2022-11-03T10:52:26;4.55;;;2.05;;
17382;SDS011;8809;51.892;8.384;2022-11-03T10:54:55;2.13;;;1.33;;
17382;SDS011;8809;51.892;8.384;2022-11-03T10:57:23;1.83;;;1.23;;
17382;SDS011;8809;51.892;8.384;2022-11-03T10:59:54;3.25;;;1.65;;
17382;SDS011;8809;51.892;8.384;2022-11-03T11:02:22;3.17;;;1.25;;
17382;SDS011;8809;51.892;8.384;2022-11-03T11:04:52;2.58;;;1.08;;
17382;SDS011;8809;51.892;8.384;2022-11-03T11:07:22;2.63;;;1.17;;
17382;SDS011;8809;51.892;8.384;2022-11-03T11:09:52;2.72;;;1.75;;
17382;SDS011;8809;51.892;8.384;2022-11-03T11:12:20;2.05;;;1.10;;
17382;SDS011;8809;51.892;8.384;2022-11-03T11:14:53;2.85;;;1.60;;
17382;SDS011;8809;51.892;8.384;2022-11-03T11:20:18;3.75;;;1.63;;
17382;SDS011;8809;51.892;8.384;2022-11-03T11:22:55;2.50;;;1.38;;
17382;SDS011;8809;51.892;8.384;2022-11-03T11:47:40;2.92;;;1.58;;
17382;SDS011;8809;51.892;8.384;2022-11-03T11:53:11;3.85;;;1.67;;
17382;SDS011;8809;51.892;8.384;2022-11-03T11:55:49;3.17;;;1.30;;
17382;SDS011;8809;51.892;8.384;2022-11-03T11:58:20;2.75;;;1.60;;
17382;SDS011;8809;51.892;8.384;2022-11-03T12:00:51;4.90;;;1.98;;
17382;SDS011;8809;51.892;8.384;2022-11-03T12:03:28;4.00;;;1.73;;
17382;SDS011;8809;51.892;8.384;2022-11-03T12:05:57;3.13;;;1.63;;
17382;SDS011;8809;51.892;8.384;2022-11-03T12:08:25;2.13;;;1.27;;
17382;SDS011;8809;51.892;8.384;2022-11-03T12:10:56;3.90;;;1.60;;
17382;SDS011;8809;51.892;8.384;2022-11-03T12:13:34;2.30;;;1.38;;
17382;SDS011;8809;51.892;8.384;2022-11-03T12:16:28;7.00;;;2.28;;
17382;SDS011;8809;51.892;8.384;2022-11-03T12:18:55;2.33;;;1.50;;
17382;SDS011;8809;51.892;8.384;2022-11-03T12:24:24;2.25;;;1.65;;
17382;SDS011;8809;51.892;8.384;2022-11-03T12:26:53;2.75;;;1.73;;
17382;SDS011;8809;51.892;8.384;2022-11-03T12:29:20;4.00;;;1.60;;
17382;SDS011;8809;51.892;8.384;2022-11-03T12:31:46;5.82;;;2.17;;
17382;SDS011;8809;51.892;8.384;2022-11-03T12:34:14;4.43;;;1.70;;
17382;SDS011;8809;51.892;8.384;2022-11-03T12:36:41;3.10;;;1.90;;
17382;SDS011;8809;51.892;8.384;2022-11-03T12:39:08;4.25;;;2.50;;
17382;SDS011;8809;51.892;8.384;2022-11-03T12:41:35;4.18;;;2.20;;
17382;SDS011;8809;51.892;8.384;2022-11-03T12:44:04;3.08;;;2.00;;
17382;SDS011;8809;51.892;8.384;2022-11-03T12:46:31;4.32;;;2.20;;
17382;SDS011;8809;51.892;8.384;2022-11-03T12:48:58;6.20;;;2.42;;
17382;SDS011;8809;51.892;8.384;2022-11-03T12:51:24;5.53;;;2.40;;
17382;SDS011;8809;51.892;8.384;2022-11-03T12:53:51;3.67;;;2.00;;
17382;SDS011;8809;51.892;8.384;2022-11-03T12:56:18;4.03;;;2.10;;
17382;SDS011;8809;51.892;8.384;2022-11-03T12:58:45;4.57;;;2.40;;
17382;SDS011;8809;51.892;8.384;2022-11-03T13:01:13;7.18;;;2.42;;
17382;SDS011;8809;51.892;8.384;2022-11-03T13:03:40;7.78;;;2.78;;
17382;SDS011;8809;51.892;8.384;2022-11-03T13:06:07;5.15;;;2.40;;
17382;SDS011;8809;51.892;8.384;2022-11-03T13:08:36;3.28;;;1.70;;
17382;SDS011;8809;51.892;8.384;2022-11-03T13:11:03;5.38;;;2.40;;
17382;SDS011;8809;51.892;8.384;2022-11-03T13:13:51;3.70;;;2.22;;
17382;SDS011;8809;51.892;8.384;2022-11-03T13:16:19;4.20;;;1.75;;
17382;SDS011;8809;51.892;8.384;2022-11-03T13:18:46;2.72;;;1.60;;
17382;SDS011;8809;51.892;8.384;2022-11-03T13:21:13;2.97;;;1.85;;
17382;SDS011;8809;51.892;8.384;2022-11-03T13:23:40;3.13;;;1.90;;
17382;SDS011;8809;51.892;8.384;2022-11-03T13:26:07;4.45;;;1.80;;
17382;SDS011;8809;51.892;8.384;2022-11-03T13:28:34;4.78;;;1.95;;
17382;SDS011;8809;51.892;8.384;2022-11-03T13:31:01;5.60;;;2.00;;
17382;SDS011;8809;51.892;8.384;2022-11-03T13:33:30;2.75;;;1.58;;
17382;SDS011;8809;51.892;8.384;2022-11-03T13:35:56;2.92;;;1.50;;
17382;SDS011;8809;51.892;8.384;2022-11-03T13:38:23;3.65;;;1.65;;
17382;SDS011;8809;51.892;8.384;2022-11-03T13:40:50;4.38;;;1.73;;
17382;SDS011;8809;51.892;8.384;2022-11-03T13:43:17;3.58;;;2.30;;
17382;SDS011;8809;51.892;8.384;2022-11-03T13:45:45;6.60;;;2.05;;
17382;SDS011;8809;51.892;8.384;2022-11-03T13:48:12;4.82;;;1.73;;
17382;SDS011;8809;51.892;8.384;2022-11-03T13:50:42;3.70;;;1.48;;
17382;SDS011;8809;51.892;8.384;2022-11-03T13:53:09;5.68;;;2.35;;
17382;SDS011;8809;51.892;8.384;2022-11-03T13:55:36;2.92;;;1.80;;
17382;SDS011;8809;51.892;8.384;2022-11-03T13:58:03;3.67;;;2.00;;
17382;SDS011;8809;51.892;8.384;2022-11-03T14:00:29;3.83;;;1.50;;
17382;SDS011;8809;51.892;8.384;2022-11-03T14:02:56;4.45;;;2.00;;
17382;SDS011;8809;51.892;8.384;2022-11-03T14:05:23;5.47;;;1.92;;
17382;SDS011;8809;51.892;8.384;2022-11-03T14:07:51;4.78;;;1.90;;
17382;SDS011;8809;51.892;8.384;2022-11-03T14:10:18;7.22;;;2.50;;
17382;SDS011;8809;51.892;8.384;2022-11-03T14:12:45;3.72;;;1.77;;
17382;SDS011;8809;51.892;8.384;2022-11-03T14:15:11;4.20;;;1.77;;
17382;SDS011;8809;51.892;8.384;2022-11-03T14:17:38;4.00;;;1.67;;
17382;SDS011;8809;51.892;8.384;2022-11-03T14:20:06;3.58;;;2.15;;
17382;SDS011;8809;51.892;8.384;2022-11-03T14:22:37;4.63;;;1.77;;
17382;SDS011;8809;51.892;8.384;2022-11-03T14:25:06;5.88;;;2.28;;
17382;SDS011;8809;51.892;8.384;2022-11-03T14:27:34;4.72;;;1.90;;
17382;SDS011;8809;51.892;8.384;2022-11-03T14:30:01;4.22;;;2.03;;
17382;SDS011;8809;51.892;8.384;2022-11-03T14:32:33;4.70;;;2.10;;
17382;SDS011;8809;51.892;8.384;2022-11-03T14:34:59;3.80;;;1.88;;
17382;SDS011;8809;51.892;8.384;2022-11-03T14:37:26;5.30;;;1.85;;
17382;SDS011;8809;51.892;8.384;2022-11-03T14:39:53;3.83;;;1.70;;
17382;SDS011;8809;51.892;8.384;2022-11-03T14:42:21;3.40;;;1.92;;
17382;SDS011;8809;51.892;8.384;2022-11-03T14:44:47;3.85;;;2.00;;
17382;SDS011;8809;51.892;8.384;2022-11-03T14:47:14;4.55;;;2.10;;
17382;SDS011;8809;51.892;8.384;2022-11-03T14:49:43;3.55;;;1.80;;
17382;SDS011;8809;51.892;8.384;2022-11-03T14:52:12;3.58;;;2.15;;
17382;SDS011;8809;51.892;8.384;2022-11-03T14:54:40;6.03;;;2.25;;
17382;SDS011;8809;51.892;8.384;2022-11-03T14:57:08;4.35;;;1.75;;
17382;SDS011;8809;51.892;8.384;2022-11-03T14:59:36;4.30;;;1.77;;
17382;SDS011;8809;51.892;8.384;2022-11-03T15:02:03;5.65;;;2.30;;
17382;SDS011;8809;51.892;8.384;2022-11-03T15:04:30;4.10;;;2.08;;
17382;SDS011;8809;51.892;8.384;2022-11-03T15:06:57;4.97;;;2.35;;
17382;SDS011;8809;51.892;8.384;2022-11-03T15:09:24;4.22;;;2.10;;
17382;SDS011;8809;51.892;8.384;2022-11-03T15:11:51;5.05;;;2.10;;
17382;SDS011;8809;51.892;8.384;2022-11-03T15:14:18;3.22;;;1.80;;
17382;SDS011;8809;51.892;8.384;2022-11-03T15:16:46;6.47;;;2.28;;
17382;SDS011;8809;51.892;8.384;2022-11-03T15:19:13;3.42;;;2.00;;
17382;SDS011;8809;51.892;8.384;2022-11-03T15:21:40;4.03;;;1.67;;
17382;SDS011;8809;51.892;8.384;2022-11-03T15:24:07;4.35;;;1.75;;
17382;SDS011;8809;51.892;8.384;2022-11-03T15:26:33;4.50;;;2.05;;
17382;SDS011;8809;51.892;8.384;2022-11-03T15:29:00;3.70;;;2.00;;
17382;SDS011;8809;51.892;8.384;2022-11-03T15:31:27;4.25;;;2.15;;
17382;SDS011;8809;51.892;8.384;2022-11-03T15:33:58;5.15;;;1.92;;
17382;SDS011;8809;51.892;8.384;2022-11-03T15:36:25;4.90;;;2.38;;
17382;SDS011;8809;51.892;8.384;2022-11-03T15:38:51;4.22;;;1.80;;
17382;SDS011;8809;51.892;8.384;2022-11-03T15:41:18;5.53;;;1.80;;
17382;SDS011;8809;51.892;8.384;2022-11-03T15:43:45;4.65;;;1.90;;
17382;SDS011;8809;51.892;8.384;2022-11-03T15:46:14;4.43;;;1.70;;
17382;SDS011;8809;51.892;8.384;2022-11-03T15:48:42;3.85;;;1.80;;
17382;SDS011;8809;51.892;8.384;2022-11-03T15:51:11;2.58;;;1.70;;
17382;SDS011;8809;51.892;8.384;2022-11-03T15:53:38;4.30;;;1.90;;